sensor_id;sensor_type;location;lat;lon;timestamp;temperature;humidity
17170;DHT22;8700;48.222;16.342;2022-08-19T00:00:23;25.80;99.90
17170;DHT22;8700;48.222;16.342;2022-08-19T00:03:49;25.60;99.90
17170;DHT22;8700;48.222;16.342;2022-08-19T00:07:11;25.40;99.90
17170;DHT22;8700;48.222;16.342;2022-08-19T00:10:33;25.30;99.90
17170;DHT22;8700;48.222;16.342;2022-08-19T00:13:55;25.30;99.90
17170;DHT22;8700;48.222;16.342;2022-08-19T00:17:17;25.20;99.90
17170;DHT22;8700;48.222;16.342;2022-08-19T00:20:39;25.10;99.90
17170;DHT22;8700;48.222;16.342;2022-08-19T00:24:02;25.10;99.90
17170;DHT22;8700;48.222;16.342;2022-08-19T00:27:23;25.10;99.90
17170;DHT22;8700;48.222;16.342;2022-08-19T00:30:45;25.10;99.90
17170;DHT22;8700;48.222;16.342;2022-08-19T00:34:06;25.10;99.90
17170;DHT22;8700;48.222;16.342;2022-08-19T00:37:29;25.00;99.90
17170;DHT22;8700;48.222;16.342;2022-08-19T00:40:50;25.00;99.90
17170;DHT22;8700;48.222;16.342;2022-08-19T00:44:13;24.90;99.90
17170;DHT22;8700;48.222;16.342;2022-08-19T00:47:35;25.00;99.90
17170;DHT22;8700;48.222;16.342;2022-08-19T00:50:56;25.10;99.90
17170;DHT22;8700;48.222;16.342;2022-08-19T00:54:19;25.10;99.90
17170;DHT22;8700;48.222;16.342;2022-08-19T00:57:45;25.10;99.90
17170;DHT22;8700;48.222;16.342;2022-08-19T01:01:06;24.90;99.90
17170;DHT22;8700;48.222;16.342;2022-08-19T01:04:28;25.10;99.90
17170;DHT22;8700;48.222;16.342;2022-08-19T01:07:50;25.00;99.90
17170;DHT22;8700;48.222;16.342;2022-08-19T01:11:13;25.10;99.90
17170;DHT22;8700;48.222;16.342;2022-08-19T01:14:35;25.00;99.90
17170;DHT22;8700;48.222;16.342;2022-08-19T01:18:01;25.10;99.90
17170;DHT22;8700;48.222;16.342;2022-08-19T01:21:27;25.10;99.90
17170;DHT22;8700;48.222;16.342;2022-08-19T01:24:54;25.00;99.90
17170;DHT22;8700;48.222;16.342;2022-08-19T01:28:19;25.10;99.90
17170;DHT22;8700;48.222;16.342;2022-08-19T01:31:41;24.90;99.90
17170;DHT22;8700;48.222;16.342;2022-08-19T01:35:03;24.80;99.90
17170;DHT22;8700;48.222;16.342;2022-08-19T01:38:26;24.90;99.90
17170;DHT22;8700;48.222;16.342;2022-08-19T01:41:52;25.00;99.90
17170;DHT22;8700;48.222;16.342;2022-08-19T01:45:15;24.90;99.90
17170;DHT22;8700;48.222;16.342;2022-08-19T01:48:38;24.80;99.90
17170;DHT22;8700;48.222;16.342;2022-08-19T01:52:01;24.90;99.90
17170;DHT22;8700;48.222;16.342;2022-08-19T01:55:22;25.00;99.90
17170;DHT22;8700;48.222;16.342;2022-08-19T01:58:49;24.80;99.90
17170;DHT22;8700;48.222;16.342;2022-08-19T02:02:12;24.80;99.90
17170;DHT22;8700;48.222;16.342;2022-08-19T02:05:33;24.60;99.90
17170;DHT22;8700;48.222;16.342;2022-08-19T02:08:55;24.60;99.90
17170;DHT22;8700;48.222;16.342;2022-08-19T02:12:16;24.70;99.90
17170;DHT22;8700;48.222;16.342;2022-08-19T02:15:39;24.80;99.90
17170;DHT22;8700;48.222;16.342;2022-08-19T02:19:01;25.00;99.90
17170;DHT22;8700;48.222;16.342;2022-08-19T02:22:23;25.10;99.90
17170;DHT22;8700;48.222;16.342;2022-08-19T02:25:47;24.80;99.90
17170;DHT22;8700;48.222;16.342;2022-08-19T02:29:09;24.80;99.90
17170;DHT22;8700;48.222;16.342;2022-08-19T02:32:32;25.10;99.90
17170;DHT22;8700;48.222;16.342;2022-08-19T02:35:53;25.10;99.90
17170;DHT22;8700;48.222;16.342;2022-08-19T02:39:15;25.10;99.90
17170;DHT22;8700;48.222;16.342;2022-08-19T02:42:36;25.10;99.90
17170;DHT22;8700;48.222;16.342;2022-08-19T02:45:58;25.30;99.90
17170;DHT22;8700;48.222;16.342;2022-08-19T02:49:21;25.20;99.90
17170;DHT22;8700;48.222;16.342;2022-08-19T02:52:42;25.20;99.90
17170;DHT22;8700;48.222;16.342;2022-08-19T02:56:07;25.60;99.90
17170;DHT22;8700;48.222;16.342;2022-08-19T02:59:29;25.30;99.90
17170;DHT22;8700;48.222;16.342;2022-08-19T03:02:51;25.20;99.90
17170;DHT22;8700;48.222;16.342;2022-08-19T03:06:15;25.10;99.90
17170;DHT22;8700;48.222;16.342;2022-08-19T03:09:37;25.10;99.90
17170;DHT22;8700;48.222;16.342;2022-08-19T03:12:59;25.10;99.90
17170;DHT22;8700;48.222;16.342;2022-08-19T03:16:22;25.20;99.90
17170;DHT22;8700;48.222;16.342;2022-08-19T03:19:44;25.30;99.90
17170;DHT22;8700;48.222;16.342;2022-08-19T03:23:07;25.50;99.90
17170;DHT22;8700;48.222;16.342;2022-08-19T03:26:29;25.50;99.90
17170;DHT22;8700;48.222;16.342;2022-08-19T03:29:50;25.40;99.90
17170;DHT22;8700;48.222;16.342;2022-08-19T03:33:12;25.30;99.90
17170;DHT22;8700;48.222;16.342;2022-08-19T03:36:33;25.40;99.90
17170;DHT22;8700;48.222;16.342;2022-08-19T03:39:56;25.40;99.90
17170;DHT22;8700;48.222;16.342;2022-08-19T03:43:17;25.30;99.90
17170;DHT22;8700;48.222;16.342;2022-08-19T03:46:39;25.30;99.90
17170;DHT22;8700;48.222;16.342;2022-08-19T03:50:00;25.30;99.90
17170;DHT22;8700;48.222;16.342;2022-08-19T03:53:22;25.30;99.90
17170;DHT22;8700;48.222;16.342;2022-08-19T03:56:46;25.40;99.90
17170;DHT22;8700;48.222;16.342;2022-08-19T04:00:09;25.50;99.90
17170;DHT22;8700;48.222;16.342;2022-08-19T04:03:30;25.40;99.90
17170;DHT22;8700;48.222;16.342;2022-08-19T04:06:52;25.00;99.90
17170;DHT22;8700;48.222;16.342;2022-08-19T04:10:13;24.80;99.90
17170;DHT22;8700;48.222;16.342;2022-08-19T04:13:36;24.60;99.90
17170;DHT22;8700;48.222;16.342;2022-08-19T04:16:59;24.50;99.90
17170;DHT22;8700;48.222;16.342;2022-08-19T04:20:21;24.50;99.90
17170;DHT22;8700;48.222;16.342;2022-08-19T04:23:42;24.70;99.90
17170;DHT22;8700;48.222;16.342;2022-08-19T04:27:05;24.70;99.90
17170;DHT22;8700;48.222;16.342;2022-08-19T04:30:28;24.70;99.90
17170;DHT22;8700;48.222;16.342;2022-08-19T04:33:49;24.80;99.90
17170;DHT22;8700;48.222;16.342;2022-08-19T04:37:11;25.00;99.90
17170;DHT22;8700;48.222;16.342;2022-08-19T04:40:32;25.00;99.90
17170;DHT22;8700;48.222;16.342;2022-08-19T04:44:12;24.90;99.90
17170;DHT22;8700;48.222;16.342;2022-08-19T04:47:35;25.10;99.90
17170;DHT22;8700;48.222;16.342;2022-08-19T04:50:57;25.10;99.90
17170;DHT22;8700;48.222;16.342;2022-08-19T04:54:19;25.30;99.90
17170;DHT22;8700;48.222;16.342;2022-08-19T04:57:42;25.30;99.90
17170;DHT22;8700;48.222;16.342;2022-08-19T05:01:04;25.30;99.90
17170;DHT22;8700;48.222;16.342;2022-08-19T05:04:26;25.30;99.90
17170;DHT22;8700;48.222;16.342;2022-08-19T05:07:48;25.40;99.90
17170;DHT22;8700;48.222;16.342;2022-08-19T05:11:12;25.50;99.90
17170;DHT22;8700;48.222;16.342;2022-08-19T05:14:33;25.60;99.90
17170;DHT22;8700;48.222;16.342;2022-08-19T05:17:56;25.60;99.90
17170;DHT22;8700;48.222;16.342;2022-08-19T05:21:36;25.80;99.90
17170;DHT22;8700;48.222;16.342;2022-08-19T05:25:18;25.60;99.90
17170;DHT22;8700;48.222;16.342;2022-08-19T05:28:40;25.30;99.90
17170;DHT22;8700;48.222;16.342;2022-08-19T05:32:04;25.10;99.90
17170;DHT22;8700;48.222;16.342;2022-08-19T05:35:28;25.30;99.90
17170;DHT22;8700;48.222;16.342;2022-08-19T05:38:52;25.30;99.90
17170;DHT22;8700;48.222;16.342;2022-08-19T05:42:14;25.20;99.90
17170;DHT22;8700;48.222;16.342;2022-08-19T05:45:39;25.10;99.90
17170;DHT22;8700;48.222;16.342;2022-08-19T05:49:02;25.00;99.90
17170;DHT22;8700;48.222;16.342;2022-08-19T05:52:24;25.10;99.90
17170;DHT22;8700;48.222;16.342;2022-08-19T05:55:48;25.10;99.90
17170;DHT22;8700;48.222;16.342;2022-08-19T05:59:10;25.00;99.90
17170;DHT22;8700;48.222;16.342;2022-08-19T06:02:32;25.20;99.90
17170;DHT22;8700;48.222;16.342;2022-08-19T06:05:54;25.40;99.90
17170;DHT22;8700;48.222;16.342;2022-08-19T06:09:16;25.40;99.90
17170;DHT22;8700;48.222;16.342;2022-08-19T06:12:39;25.20;99.90
17170;DHT22;8700;48.222;16.342;2022-08-19T06:16:00;25.40;99.90
17170;DHT22;8700;48.222;16.342;2022-08-19T06:19:22;25.40;99.90
17170;DHT22;8700;48.222;16.342;2022-08-19T06:22:47;25.60;99.90
17170;DHT22;8700;48.222;16.342;2022-08-19T06:26:11;25.30;99.90
17170;DHT22;8700;48.222;16.342;2022-08-19T06:29:34;25.30;99.90
17170;DHT22;8700;48.222;16.342;2022-08-19T06:32:56;25.40;99.90
17170;DHT22;8700;48.222;16.342;2022-08-19T06:36:20;25.40;99.90
17170;DHT22;8700;48.222;16.342;2022-08-19T06:39:43;25.50;99.90
17170;DHT22;8700;48.222;16.342;2022-08-19T06:43:05;25.80;99.90
17170;DHT22;8700;48.222;16.342;2022-08-19T06:46:27;26.00;99.90
17170;DHT22;8700;48.222;16.342;2022-08-19T06:49:53;25.80;99.90
17170;DHT22;8700;48.222;16.342;2022-08-19T06:53:19;25.80;99.90
17170;DHT22;8700;48.222;16.342;2022-08-19T06:56:41;25.60;99.90
17170;DHT22;8700;48.222;16.342;2022-08-19T07:00:04;25.80;99.90
17170;DHT22;8700;48.222;16.342;2022-08-19T07:03:33;26.20;99.90
17170;DHT22;8700;48.222;16.342;2022-08-19T07:06:58;26.90;99.90
17170;DHT22;8700;48.222;16.342;2022-08-19T07:10:21;27.10;99.90
17170;DHT22;8700;48.222;16.342;2022-08-19T07:13:42;26.70;99.90
17170;DHT22;8700;48.222;16.342;2022-08-19T07:17:07;27.00;99.90
17170;DHT22;8700;48.222;16.342;2022-08-19T07:20:30;27.60;99.90
17170;DHT22;8700;48.222;16.342;2022-08-19T07:23:51;27.90;99.90
17170;DHT22;8700;48.222;16.342;2022-08-19T07:27:14;28.00;99.90
17170;DHT22;8700;48.222;16.342;2022-08-19T07:30:37;28.30;99.90
17170;DHT22;8700;48.222;16.342;2022-08-19T07:34:00;28.40;99.90
17170;DHT22;8700;48.222;16.342;2022-08-19T07:37:24;28.60;99.90
17170;DHT22;8700;48.222;16.342;2022-08-19T07:40:46;28.60;99.90
17170;DHT22;8700;48.222;16.342;2022-08-19T07:44:09;28.80;99.90
17170;DHT22;8700;48.222;16.342;2022-08-19T07:47:30;28.90;99.90
17170;DHT22;8700;48.222;16.342;2022-08-19T07:50:52;29.40;99.90
17170;DHT22;8700;48.222;16.342;2022-08-19T07:54:19;29.30;99.90
17170;DHT22;8700;48.222;16.342;2022-08-19T07:57:41;29.30;99.90
17170;DHT22;8700;48.222;16.342;2022-08-19T08:01:03;29.40;99.90
17170;DHT22;8700;48.222;16.342;2022-08-19T08:04:26;29.70;99.90
17170;DHT22;8700;48.222;16.342;2022-08-19T08:08:04;29.80;99.90
17170;DHT22;8700;48.222;16.342;2022-08-19T08:11:47;30.10;99.90
17170;DHT22;8700;48.222;16.342;2022-08-19T08:15:13;30.50;99.90
17170;DHT22;8700;48.222;16.342;2022-08-19T08:18:36;30.30;99.90
17170;DHT22;8700;48.222;16.342;2022-08-19T08:22:02;30.50;99.90
17170;DHT22;8700;48.222;16.342;2022-08-19T08:25:26;32.00;99.90
17170;DHT22;8700;48.222;16.342;2022-08-19T08:28:48;33.00;98.80
17170;DHT22;8700;48.222;16.342;2022-08-19T08:32:11;33.30;97.80
17170;DHT22;8700;48.222;16.342;2022-08-19T08:35:32;34.30;94.40
17170;DHT22;8700;48.222;16.342;2022-08-19T08:38:54;34.50;92.90
17170;DHT22;8700;48.222;16.342;2022-08-19T08:42:29;34.10;93.00
17170;DHT22;8700;48.222;16.342;2022-08-19T08:45:59;34.60;91.70
17170;DHT22;8700;48.222;16.342;2022-08-19T08:49:28;34.70;91.10
17170;DHT22;8700;48.222;16.342;2022-08-19T08:52:54;35.10;90.00
17170;DHT22;8700;48.222;16.342;2022-08-19T08:56:17;34.80;89.10
17170;DHT22;8700;48.222;16.342;2022-08-19T08:59:41;34.60;88.20
17170;DHT22;8700;48.222;16.342;2022-08-19T09:03:09;34.60;87.60
17170;DHT22;8700;48.222;16.342;2022-08-19T09:06:38;34.10;87.50
17170;DHT22;8700;48.222;16.342;2022-08-19T09:10:09;33.50;88.60
17170;DHT22;8700;48.222;16.342;2022-08-19T09:13:36;33.60;89.40
17170;DHT22;8700;48.222;16.342;2022-08-19T09:17:02;34.90;87.30
17170;DHT22;8700;48.222;16.342;2022-08-19T09:20:29;36.50;84.10
17170;DHT22;8700;48.222;16.342;2022-08-19T09:23:51;37.40;80.70
17170;DHT22;8700;48.222;16.342;2022-08-19T09:27:13;37.80;79.00
17170;DHT22;8700;48.222;16.342;2022-08-19T09:30:39;38.40;77.50
17170;DHT22;8700;48.222;16.342;2022-08-19T09:34:01;38.40;76.20
17170;DHT22;8700;48.222;16.342;2022-08-19T09:37:25;37.90;76.00
17170;DHT22;8700;48.222;16.342;2022-08-19T09:40:47;38.00;75.30
17170;DHT22;8700;48.222;16.342;2022-08-19T09:44:08;38.20;74.80
17170;DHT22;8700;48.222;16.342;2022-08-19T09:47:31;38.30;74.00
17170;DHT22;8700;48.222;16.342;2022-08-19T09:51:02;38.10;73.20
17170;DHT22;8700;48.222;16.342;2022-08-19T09:54:27;38.10;72.50
17170;DHT22;8700;48.222;16.342;2022-08-19T09:57:48;38.30;72.00
17170;DHT22;8700;48.222;16.342;2022-08-19T10:01:15;38.60;70.60
17170;DHT22;8700;48.222;16.342;2022-08-19T10:04:37;38.80;70.10
17170;DHT22;8700;48.222;16.342;2022-08-19T10:08:18;38.60;69.60
17170;DHT22;8700;48.222;16.342;2022-08-19T10:11:43;36.80;71.60
17170;DHT22;8700;48.222;16.342;2022-08-19T10:15:09;36.20;72.90
17170;DHT22;8700;48.222;16.342;2022-08-19T10:18:31;36.90;72.00
17170;DHT22;8700;48.222;16.342;2022-08-19T10:21:54;36.80;71.40
17170;DHT22;8700;48.222;16.342;2022-08-19T10:25:15;35.80;72.30
17170;DHT22;8700;48.222;16.342;2022-08-19T10:28:38;35.20;73.90
17170;DHT22;8700;48.222;16.342;2022-08-19T10:32:01;34.90;74.30
17170;DHT22;8700;48.222;16.342;2022-08-19T10:35:23;34.20;75.60
17170;DHT22;8700;48.222;16.342;2022-08-19T10:38:48;33.70;77.30
17170;DHT22;8700;48.222;16.342;2022-08-19T10:42:11;33.40;79.20
17170;DHT22;8700;48.222;16.342;2022-08-19T10:45:35;32.70;80.50
17170;DHT22;8700;48.222;16.342;2022-08-19T10:48:57;32.30;82.40
17170;DHT22;8700;48.222;16.342;2022-08-19T10:52:18;31.80;84.70
17170;DHT22;8700;48.222;16.342;2022-08-19T10:55:53;32.20;84.60
17170;DHT22;8700;48.222;16.342;2022-08-19T10:59:32;32.00;88.00
17170;DHT22;8700;48.222;16.342;2022-08-19T11:02:58;31.90;90.40
17170;DHT22;8700;48.222;16.342;2022-08-19T11:06:19;31.90;90.30
17170;DHT22;8700;48.222;16.342;2022-08-19T11:09:42;31.20;91.40
17170;DHT22;8700;48.222;16.342;2022-08-19T11:13:03;31.00;93.20
17170;DHT22;8700;48.222;16.342;2022-08-19T11:16:26;31.00;94.00
17170;DHT22;8700;48.222;16.342;2022-08-19T11:19:51;30.90;95.10
17170;DHT22;8700;48.222;16.342;2022-08-19T11:23:12;30.10;94.00
17170;DHT22;8700;48.222;16.342;2022-08-19T11:26:35;30.10;94.50
17170;DHT22;8700;48.222;16.342;2022-08-19T11:29:57;30.40;95.40
17170;DHT22;8700;48.222;16.342;2022-08-19T11:33:18;30.50;96.30
17170;DHT22;8700;48.222;16.342;2022-08-19T11:36:43;30.60;97.10
17170;DHT22;8700;48.222;16.342;2022-08-19T11:40:05;30.50;95.60
17170;DHT22;8700;48.222;16.342;2022-08-19T11:43:28;31.90;93.30
17170;DHT22;8700;48.222;16.342;2022-08-19T11:46:50;32.10;92.40
17170;DHT22;8700;48.222;16.342;2022-08-19T11:50:12;31.30;92.20
17170;DHT22;8700;48.222;16.342;2022-08-19T11:53:36;31.20;92.10
17170;DHT22;8700;48.222;16.342;2022-08-19T11:56:59;31.30;91.60
17170;DHT22;8700;48.222;16.342;2022-08-19T12:00:21;32.10;91.30
17170;DHT22;8700;48.222;16.342;2022-08-19T12:03:43;32.50;89.10
17170;DHT22;8700;48.222;16.342;2022-08-19T12:07:04;32.60;85.70
17170;DHT22;8700;48.222;16.342;2022-08-19T12:10:28;32.30;86.60
17170;DHT22;8700;48.222;16.342;2022-08-19T12:13:49;32.20;86.50
17170;DHT22;8700;48.222;16.342;2022-08-19T12:17:12;32.00;86.90
17170;DHT22;8700;48.222;16.342;2022-08-19T12:20:34;31.70;86.80
17170;DHT22;8700;48.222;16.342;2022-08-19T12:23:58;31.50;87.50
17170;DHT22;8700;48.222;16.342;2022-08-19T12:27:21;31.90;87.80
17170;DHT22;8700;48.222;16.342;2022-08-19T12:30:43;32.00;88.10
17170;DHT22;8700;48.222;16.342;2022-08-19T12:34:04;32.20;88.50
17170;DHT22;8700;48.222;16.342;2022-08-19T12:37:27;32.20;89.30
17170;DHT22;8700;48.222;16.342;2022-08-19T12:40:50;32.00;90.30
17170;DHT22;8700;48.222;16.342;2022-08-19T12:44:13;31.90;90.80
17170;DHT22;8700;48.222;16.342;2022-08-19T12:47:34;31.50;91.30
17170;DHT22;8700;48.222;16.342;2022-08-19T12:50:56;31.30;91.70
17170;DHT22;8700;48.222;16.342;2022-08-19T12:54:17;31.30;92.10
17170;DHT22;8700;48.222;16.342;2022-08-19T12:57:40;30.90;92.50
17170;DHT22;8700;48.222;16.342;2022-08-19T13:01:08;30.80;92.40
17170;DHT22;8700;48.222;16.342;2022-08-19T13:04:30;30.50;93.30
17170;DHT22;8700;48.222;16.342;2022-08-19T13:07:52;30.50;94.20
17170;DHT22;8700;48.222;16.342;2022-08-19T13:11:18;30.70;93.50
17170;DHT22;8700;48.222;16.342;2022-08-19T13:14:40;30.80;93.70
17170;DHT22;8700;48.222;16.342;2022-08-19T13:18:10;30.60;93.50
17170;DHT22;8700;48.222;16.342;2022-08-19T13:21:32;30.30;93.60
17170;DHT22;8700;48.222;16.342;2022-08-19T13:25:00;30.10;93.50
17170;DHT22;8700;48.222;16.342;2022-08-19T13:28:21;30.00;93.50
17170;DHT22;8700;48.222;16.342;2022-08-19T13:31:43;30.20;93.20
17170;DHT22;8700;48.222;16.342;2022-08-19T13:35:23;29.90;93.30
17170;DHT22;8700;48.222;16.342;2022-08-19T13:38:45;29.90;93.60
17170;DHT22;8700;48.222;16.342;2022-08-19T13:42:07;29.70;94.10
17170;DHT22;8700;48.222;16.342;2022-08-19T13:45:31;29.60;94.90
17170;DHT22;8700;48.222;16.342;2022-08-19T13:48:53;29.70;94.90
17170;DHT22;8700;48.222;16.342;2022-08-19T13:52:16;29.80;95.70
17170;DHT22;8700;48.222;16.342;2022-08-19T13:55:38;29.70;96.20
17170;DHT22;8700;48.222;16.342;2022-08-19T13:59:01;29.70;97.90
17170;DHT22;8700;48.222;16.342;2022-08-19T14:02:23;29.80;96.50
17170;DHT22;8700;48.222;16.342;2022-08-19T14:05:44;29.30;97.00
17170;DHT22;8700;48.222;16.342;2022-08-19T14:09:09;29.20;97.30
17170;DHT22;8700;48.222;16.342;2022-08-19T14:12:31;29.40;96.60
17170;DHT22;8700;48.222;16.342;2022-08-19T14:15:52;29.40;96.50
17170;DHT22;8700;48.222;16.342;2022-08-19T14:19:14;29.30;96.80
17170;DHT22;8700;48.222;16.342;2022-08-19T14:22:40;29.50;96.60
17170;DHT22;8700;48.222;16.342;2022-08-19T14:26:08;29.90;96.20
17170;DHT22;8700;48.222;16.342;2022-08-19T14:29:31;30.20;96.00
17170;DHT22;8700;48.222;16.342;2022-08-19T14:32:53;30.20;96.20
17170;DHT22;8700;48.222;16.342;2022-08-19T14:36:15;30.10;96.40
17170;DHT22;8700;48.222;16.342;2022-08-19T14:39:38;30.30;96.30
17170;DHT22;8700;48.222;16.342;2022-08-19T14:43:03;30.10;96.30
17170;DHT22;8700;48.222;16.342;2022-08-19T14:46:28;29.80;96.00
17170;DHT22;8700;48.222;16.342;2022-08-19T14:49:49;29.80;96.00
17170;DHT22;8700;48.222;16.342;2022-08-19T14:53:11;29.80;93.30
17170;DHT22;8700;48.222;16.342;2022-08-19T14:56:32;29.90;93.80
17170;DHT22;8700;48.222;16.342;2022-08-19T14:59:56;29.90;93.20
17170;DHT22;8700;48.222;16.342;2022-08-19T15:03:17;29.90;93.40
17170;DHT22;8700;48.222;16.342;2022-08-19T15:06:39;29.90;93.60
17170;DHT22;8700;48.222;16.342;2022-08-19T15:10:02;29.80;93.80
17170;DHT22;8700;48.222;16.342;2022-08-19T15:13:25;30.10;93.10
17170;DHT22;8700;48.222;16.342;2022-08-19T15:16:48;30.20;92.40
17170;DHT22;8700;48.222;16.342;2022-08-19T15:20:11;30.10;91.90
17170;DHT22;8700;48.222;16.342;2022-08-19T15:23:34;30.10;91.90
17170;DHT22;8700;48.222;16.342;2022-08-19T15:26:56;30.00;92.10
17170;DHT22;8700;48.222;16.342;2022-08-19T15:30:21;30.00;92.00
17170;DHT22;8700;48.222;16.342;2022-08-19T15:33:45;29.60;92.10
17170;DHT22;8700;48.222;16.342;2022-08-19T15:37:08;29.40;92.70
17170;DHT22;8700;48.222;16.342;2022-08-19T15:40:29;29.60;92.50
17170;DHT22;8700;48.222;16.342;2022-08-19T15:43:53;29.80;92.70
17170;DHT22;8700;48.222;16.342;2022-08-19T15:47:14;30.00;92.60
17170;DHT22;8700;48.222;16.342;2022-08-19T15:50:39;30.20;92.40
17170;DHT22;8700;48.222;16.342;2022-08-19T15:54:02;29.70;92.50
17170;DHT22;8700;48.222;16.342;2022-08-19T15:57:24;29.60;92.90
17170;DHT22;8700;48.222;16.342;2022-08-19T16:01:06;29.60;92.90
17170;DHT22;8700;48.222;16.342;2022-08-19T16:04:45;29.40;93.40
17170;DHT22;8700;48.222;16.342;2022-08-19T16:08:26;29.60;93.50
17170;DHT22;8700;48.222;16.342;2022-08-19T16:11:47;30.00;92.90
17170;DHT22;8700;48.222;16.342;2022-08-19T16:15:10;29.70;92.80
17170;DHT22;8700;48.222;16.342;2022-08-19T16:18:32;29.80;92.70
17170;DHT22;8700;48.222;16.342;2022-08-19T16:21:57;29.50;93.00
17170;DHT22;8700;48.222;16.342;2022-08-19T16:25:19;29.30;93.30
17170;DHT22;8700;48.222;16.342;2022-08-19T16:28:48;29.40;93.10
17170;DHT22;8700;48.222;16.342;2022-08-19T16:32:10;29.40;93.30
17170;DHT22;8700;48.222;16.342;2022-08-19T16:35:33;29.40;93.30
17170;DHT22;8700;48.222;16.342;2022-08-19T16:38:54;29.40;93.30
17170;DHT22;8700;48.222;16.342;2022-08-19T16:42:17;29.40;93.60
17170;DHT22;8700;48.222;16.342;2022-08-19T16:45:39;29.20;93.50
17170;DHT22;8700;48.222;16.342;2022-08-19T16:49:01;29.20;93.90
17170;DHT22;8700;48.222;16.342;2022-08-19T16:52:22;29.10;93.90
17170;DHT22;8700;48.222;16.342;2022-08-19T16:55:45;29.10;94.00
17170;DHT22;8700;48.222;16.342;2022-08-19T16:59:11;29.10;94.10
17170;DHT22;8700;48.222;16.342;2022-08-19T17:02:36;29.10;93.40
17170;DHT22;8700;48.222;16.342;2022-08-19T17:05:58;29.00;93.80
17170;DHT22;8700;48.222;16.342;2022-08-19T17:09:22;28.90;94.00
17170;DHT22;8700;48.222;16.342;2022-08-19T17:12:44;28.70;94.40
17170;DHT22;8700;48.222;16.342;2022-08-19T17:16:07;28.50;94.80
17170;DHT22;8700;48.222;16.342;2022-08-19T17:19:29;28.50;95.20
17170;DHT22;8700;48.222;16.342;2022-08-19T17:22:50;28.70;95.20
17170;DHT22;8700;48.222;16.342;2022-08-19T17:26:12;28.70;95.30
17170;DHT22;8700;48.222;16.342;2022-08-19T17:29:34;28.60;95.20
17170;DHT22;8700;48.222;16.342;2022-08-19T17:32:57;28.60;95.10
17170;DHT22;8700;48.222;16.342;2022-08-19T17:36:20;28.50;95.30
17170;DHT22;8700;48.222;16.342;2022-08-19T17:39:42;28.50;95.10
17170;DHT22;8700;48.222;16.342;2022-08-19T17:43:03;28.40;94.90
17170;DHT22;8700;48.222;16.342;2022-08-19T17:46:27;28.30;95.10
17170;DHT22;8700;48.222;16.342;2022-08-19T17:49:50;28.30;95.20
17170;DHT22;8700;48.222;16.342;2022-08-19T17:53:12;28.30;95.20
17170;DHT22;8700;48.222;16.342;2022-08-19T17:56:33;28.30;95.50
17170;DHT22;8700;48.222;16.342;2022-08-19T17:59:55;28.30;95.80
17170;DHT22;8700;48.222;16.342;2022-08-19T18:03:17;28.30;96.10
17170;DHT22;8700;48.222;16.342;2022-08-19T18:06:40;28.20;96.30
17170;DHT22;8700;48.222;16.342;2022-08-19T18:10:02;28.20;96.40
17170;DHT22;8700;48.222;16.342;2022-08-19T18:13:23;28.20;96.50
17170;DHT22;8700;48.222;16.342;2022-08-19T18:16:45;28.10;96.90
17170;DHT22;8700;48.222;16.342;2022-08-19T18:20:09;28.00;97.20
17170;DHT22;8700;48.222;16.342;2022-08-19T18:23:32;27.90;97.80
17170;DHT22;8700;48.222;16.342;2022-08-19T18:27:01;28.00;97.90
17170;DHT22;8700;48.222;16.342;2022-08-19T18:30:24;27.90;98.40
17170;DHT22;8700;48.222;16.342;2022-08-19T18:33:46;27.70;98.90
17170;DHT22;8700;48.222;16.342;2022-08-19T18:37:11;27.80;99.00
17170;DHT22;8700;48.222;16.342;2022-08-19T18:40:34;27.90;99.10
17170;DHT22;8700;48.222;16.342;2022-08-19T18:44:13;27.70;99.50
17170;DHT22;8700;48.222;16.342;2022-08-19T18:47:51;27.70;99.70
17170;DHT22;8700;48.222;16.342;2022-08-19T18:51:31;27.70;99.90
17170;DHT22;8700;48.222;16.342;2022-08-19T18:54:52;27.60;99.90
17170;DHT22;8700;48.222;16.342;2022-08-19T18:58:15;27.60;99.90
17170;DHT22;8700;48.222;16.342;2022-08-19T19:01:38;27.50;99.90
17170;DHT22;8700;48.222;16.342;2022-08-19T19:05:05;27.50;99.90
17170;DHT22;8700;48.222;16.342;2022-08-19T19:08:27;27.50;99.90
17170;DHT22;8700;48.222;16.342;2022-08-19T19:11:51;27.50;99.90
17170;DHT22;8700;48.222;16.342;2022-08-19T19:15:14;27.50;99.90
17170;DHT22;8700;48.222;16.342;2022-08-19T19:18:36;27.50;99.90
17170;DHT22;8700;48.222;16.342;2022-08-19T19:21:58;27.50;99.90
17170;DHT22;8700;48.222;16.342;2022-08-19T19:25:20;27.20;99.90
17170;DHT22;8700;48.222;16.342;2022-08-19T19:28:42;27.00;99.90
17170;DHT22;8700;48.222;16.342;2022-08-19T19:32:09;27.00;99.90
17170;DHT22;8700;48.222;16.342;2022-08-19T19:35:30;26.90;99.90
17170;DHT22;8700;48.222;16.342;2022-08-19T19:38:52;26.80;99.90
17170;DHT22;8700;48.222;16.342;2022-08-19T19:42:16;26.90;99.90
17170;DHT22;8700;48.222;16.342;2022-08-19T19:45:38;26.80;99.90
17170;DHT22;8700;48.222;16.342;2022-08-19T19:49:01;26.60;99.90
17170;DHT22;8700;48.222;16.342;2022-08-19T19:52:23;26.50;99.90
17170;DHT22;8700;48.222;16.342;2022-08-19T19:55:45;26.40;99.90
17170;DHT22;8700;48.222;16.342;2022-08-19T19:59:06;26.20;99.90
17170;DHT22;8700;48.222;16.342;2022-08-19T20:02:28;26.10;99.90
17170;DHT22;8700;48.222;16.342;2022-08-19T20:05:51;25.90;99.90
17170;DHT22;8700;48.222;16.342;2022-08-19T20:09:13;25.60;99.90
17170;DHT22;8700;48.222;16.342;2022-08-19T20:12:36;25.50;99.90
17170;DHT22;8700;48.222;16.342;2022-08-19T20:15:58;25.60;99.90
17170;DHT22;8700;48.222;16.342;2022-08-19T20:19:22;25.60;99.90
17170;DHT22;8700;48.222;16.342;2022-08-19T20:22:46;25.30;99.90
17170;DHT22;8700;48.222;16.342;2022-08-19T20:26:07;25.20;99.90
17170;DHT22;8700;48.222;16.342;2022-08-19T20:29:29;25.20;99.90
17170;DHT22;8700;48.222;16.342;2022-08-19T20:32:50;25.30;99.90
17170;DHT22;8700;48.222;16.342;2022-08-19T20:36:12;25.40;99.90
17170;DHT22;8700;48.222;16.342;2022-08-19T20:39:36;25.30;99.90
17170;DHT22;8700;48.222;16.342;2022-08-19T20:42:57;25.00;99.90
17170;DHT22;8700;48.222;16.342;2022-08-19T20:46:18;24.80;99.90
17170;DHT22;8700;48.222;16.342;2022-08-19T20:49:40;24.80;99.90
17170;DHT22;8700;48.222;16.342;2022-08-19T20:53:08;24.80;99.90
17170;DHT22;8700;48.222;16.342;2022-08-19T20:56:31;24.70;99.90
17170;DHT22;8700;48.222;16.342;2022-08-19T20:59:53;24.60;99.90
17170;DHT22;8700;48.222;16.342;2022-08-19T21:03:16;24.80;99.90
17170;DHT22;8700;48.222;16.342;2022-08-19T21:06:38;24.80;99.90
17170;DHT22;8700;48.222;16.342;2022-08-19T21:09:59;24.90;99.90
17170;DHT22;8700;48.222;16.342;2022-08-19T21:13:24;25.00;99.90
17170;DHT22;8700;48.222;16.342;2022-08-19T21:16:46;24.90;99.90
17170;DHT22;8700;48.222;16.342;2022-08-19T21:20:08;24.60;99.90
17170;DHT22;8700;48.222;16.342;2022-08-19T21:23:30;24.50;99.90